Terminal Aerodrome Forecast
Issued by NWS

Home | Current Version | Previous Version | Text Only | Print | Product List | Glossary Off
Versions: 1 2 3 4 5 6 7 8 9 10 11 12 13 14 15 16 17 18 19 20 21 22 23 24 25

000
FTUS43 KGRB 250700 AAA
TAFATW
TAF AMD
KATW 250712Z 2507/2606 30012KT 3SM -SN SCT015 OVC029
      TEMPO 2507/2510 2SM -SN OVC015
     FM251000 30009KT 5SM -SN OVC020
     FM251300 29008KT P6SM OVC025
     FM252000 26007KT P6SM FEW030 BKN120
     FM260000 22003KT P6SM SCT100=

USA.gov is the U.S. government's official web portal to all federal, state and local government web resources and services.